createdAt,value
2022-11-14T00:01:50.307Z,101478.97
2022-11-14T00:04:56.687Z,101478.41
2022-11-14T00:08:02.645Z,101482.78
2022-11-14T00:11:09.770Z,101477.31
2022-11-14T00:14:15.975Z,101435.84
2022-11-14T00:17:22.613Z,101463.13
2022-11-14T00:20:28.510Z,101468.56
2022-11-14T00:23:34.493Z,101478.44
2022-11-14T00:26:40.670Z,101456.03
2022-11-14T00:29:46.572Z,101477.03
2022-11-14T00:32:52.510Z,101429.84
2022-11-14T00:35:58.634Z,101434.22
2022-11-14T00:39:05.020Z,101456.84
2022-11-14T00:42:10.850Z,101442.13
2022-11-14T00:45:17.020Z,101460.69
2022-11-14T00:48:44.148Z,101454.41
2022-11-14T00:51:50.493Z,101461.22
2022-11-14T00:54:56.527Z,101450.59
2022-11-14T00:58:02.752Z,101450.84
2022-11-14T01:01:09.289Z,101457.97
2022-11-14T01:04:15.181Z,101457.16
2022-11-14T01:07:21.606Z,101432.28
2022-11-14T01:10:27.856Z,101427.66
2022-11-14T01:13:34.285Z,101447.31
2022-11-14T01:16:40.381Z,101440.75
2022-11-14T01:19:46.471Z,101445.97
2022-11-14T01:22:52.668Z,101446.47
2022-11-14T01:26:03.617Z,101449.75
2022-11-14T01:29:09.592Z,101436.69
2022-11-14T01:32:15.699Z,101439.94
2022-11-14T01:35:22.015Z,101445.94
2022-11-14T01:38:31.324Z,101438.59
2022-11-14T01:41:37.593Z,101446.47
2022-11-14T01:44:49.264Z,101451.66
2022-11-14T01:48:14.526Z,101419.47
2022-11-14T01:51:35.066Z,101439.69
2022-11-14T01:54:47.059Z,101433.94
2022-11-14T01:57:53.446Z,101445.41
2022-11-14T02:01:00.173Z,101439.13
2022-11-14T02:04:08.878Z,101430.38
2022-11-14T02:07:18.890Z,101438.31
2022-11-14T02:10:24.720Z,101450.56
2022-11-14T02:13:31.111Z,101414.31
2022-11-14T02:16:41.173Z,101439.13
2022-11-14T02:20:06.903Z,101446.75
2022-11-14T02:23:13.496Z,101453.03
2022-11-14T02:26:21.032Z,101412.13
2022-11-14T02:29:27.042Z,101440.19
2022-11-14T02:32:56.978Z,101418.41
2022-11-14T02:35:59.213Z,101421.41
2022-11-14T02:39:05.260Z,101447.88
2022-11-14T02:42:11.446Z,101431.50
2022-11-14T02:45:17.752Z,101441.31
2022-11-14T02:48:23.915Z,101436.69
2022-11-14T02:51:30.054Z,101438.88
2022-11-14T02:54:36.249Z,101424.94
2022-11-14T02:57:42.152Z,101440.22
2022-11-14T03:01:18.584Z,101451.66
2022-11-14T03:04:14.268Z,101432.31
2022-11-14T03:07:20.534Z,101429.84
2022-11-14T03:10:26.877Z,101431.75
2022-11-14T03:13:32.891Z,101445.69
2022-11-14T03:16:38.703Z,101446.22
2022-11-14T03:19:44.790Z,101428.75
2022-11-14T03:22:51.156Z,101426.00
2022-11-14T03:26:01.295Z,101433.38
2022-11-14T03:29:07.274Z,101449.75
2022-11-14T03:32:13.374Z,101458.22
2022-11-14T03:35:19.742Z,101435.03
2022-11-14T03:38:25.983Z,101454.41
2022-11-14T03:41:32.773Z,101448.13
2022-11-14T03:44:39.218Z,101451.41
2022-11-14T03:47:45.564Z,101444.31
2022-11-14T03:50:51.990Z,101447.03
2022-11-14T03:53:58.331Z,101436.41
2022-11-14T03:57:08.825Z,101401.22
2022-11-14T04:00:15.710Z,101421.69
2022-11-14T04:03:22.690Z,101439.13
2022-11-14T04:06:29.080Z,101433.94
2022-11-14T04:09:35.540Z,101434.22
2022-11-14T04:12:41.562Z,101446.22
2022-11-14T04:15:47.885Z,101448.69
2022-11-14T04:18:54.251Z,101438.84
2022-11-14T04:22:00.500Z,101442.94
2022-11-14T04:25:12.608Z,101417.56
2022-11-14T04:28:18.999Z,101454.94
2022-11-14T04:31:25.181Z,101446.75
2022-11-14T04:34:31.409Z,101444.31
2022-11-14T04:37:40.245Z,101432.84
2022-11-14T04:40:54.137Z,101444.03
2022-11-14T04:44:00.159Z,101448.94
2022-11-14T04:47:06.541Z,101453.84
2022-11-14T04:50:12.766Z,101401.47
2022-11-14T04:53:21.753Z,101449.47
2022-11-14T04:56:30.201Z,101437.44
2022-11-14T04:59:36.451Z,101439.38
2022-11-14T05:02:42.419Z,101454.94
2022-11-14T05:05:48.540Z,101455.19
2022-11-14T05:08:54.398Z,101461.19
2022-11-14T05:12:00.664Z,101458.47
2022-11-14T05:15:07.314Z,101452.72
2022-11-14T05:18:13.677Z,101453.28
2022-11-14T05:21:19.551Z,101430.88
2022-11-14T05:24:26.409Z,101436.91
2022-11-14T05:27:32.641Z,101441.00
2022-11-14T05:30:38.912Z,101444.53
2022-11-14T05:33:47.249Z,101433.34
2022-11-14T05:36:53.643Z,101437.97
2022-11-14T05:40:00.047Z,101453.78
2022-11-14T05:43:07.253Z,101447.53
2022-11-14T05:46:14.879Z,101449.97
2022-11-14T05:49:22.197Z,101434.38
2022-11-14T05:52:28.243Z,101469.03
2022-11-14T05:55:34.519Z,101467.66
2022-11-14T05:58:40.740Z,101466.50
2022-11-14T06:01:46.796Z,101465.66
2022-11-14T06:04:53.154Z,101465.84
2022-11-14T06:07:59.561Z,101464.25
2022-11-14T06:11:08.236Z,101470.22
2022-11-14T06:14:14.214Z,101467.66
2022-11-14T06:17:20.314Z,101468.97
2022-11-14T06:20:26.519Z,101474.81
2022-11-14T06:23:32.872Z,101451.22
2022-11-14T06:26:39.213Z,101464.84
2022-11-14T06:29:45.248Z,101472.66
2022-11-14T06:32:57.356Z,101469.84
2022-11-14T06:36:07.864Z,101476.44
2022-11-14T06:39:13.832Z,101473.84
2022-11-14T06:42:20.023Z,101469.06
2022-11-14T06:45:26.308Z,101481.06
2022-11-14T06:48:33.022Z,101490.41
2022-11-14T06:51:38.916Z,101480.22
2022-11-14T06:54:45.361Z,101475.25
2022-11-14T06:57:55.126Z,101475.69
2022-11-14T07:01:08.444Z,101472.63
2022-11-14T07:04:14.486Z,101471.69
2022-11-14T07:07:20.704Z,101461.09
2022-11-14T07:10:26.806Z,101475.41
2022-11-14T07:13:33.796Z,101475.31
2022-11-14T07:16:39.760Z,101477.88
2022-11-14T07:19:45.924Z,101477.53
2022-11-14T07:22:52.190Z,101473.97
2022-11-14T07:26:03.050Z,101479.31
2022-11-14T07:29:09.133Z,101479.78
2022-11-14T07:32:15.557Z,101473.88
2022-11-14T07:35:21.702Z,101482.56
2022-11-14T07:38:28.413Z,101473.72
2022-11-14T07:41:34.854Z,101477.44
2022-11-14T07:44:41.059Z,101482.78
2022-11-14T07:47:47.169Z,101480.78
2022-11-14T07:50:53.277Z,101459.19
2022-11-14T07:53:59.154Z,101468.13
2022-11-14T07:57:05.524Z,101451.00
2022-11-14T08:00:12.354Z,101467.84
2022-11-14T08:03:18.259Z,101453.31
2022-11-14T08:06:24.532Z,101458.28
2022-11-14T08:09:30.852Z,101448.44
2022-11-14T08:12:38.767Z,101449.38
2022-11-14T08:15:44.866Z,101461.69
2022-11-14T08:18:51.154Z,101464.38
2022-11-14T08:21:57.536Z,101465.38
2022-11-14T08:25:04.036Z,101459.41
2022-11-14T08:28:10.122Z,101459.84
2022-11-14T08:31:16.295Z,101459.00
2022-11-14T08:34:23.902Z,101469.00
2022-11-14T08:37:29.723Z,101460.56
2022-11-14T08:40:35.676Z,101470.91
2022-11-14T08:43:41.899Z,101467.47
2022-11-14T08:46:47.899Z,101471.84
2022-11-14T08:49:54.074Z,101470.63
2022-11-14T08:53:00.330Z,101467.34
2022-11-14T08:56:06.822Z,101456.88
2022-11-14T08:59:12.965Z,101447.78
2022-11-14T09:02:19.297Z,101456.84
2022-11-14T09:05:26.007Z,101444.41
2022-11-14T09:08:32.759Z,101445.44
2022-11-14T09:11:39.429Z,101441.84
2022-11-14T09:14:45.633Z,101461.03
2022-11-14T09:17:55.923Z,101436.81
2022-11-14T09:21:06.727Z,101440.88
2022-11-14T09:24:12.576Z,101429.22
2022-11-14T09:27:19.024Z,101430.56
2022-11-14T09:30:25.391Z,101439.66
2022-11-14T09:33:31.686Z,101419.16
2022-11-14T09:36:38.132Z,101429.19
2022-11-14T09:39:44.344Z,101429.59
2022-11-14T09:43:02.923Z,101412.63
2022-11-14T09:46:19.316Z,101422.09
2022-11-14T09:49:55.040Z,101418.66
2022-11-14T09:53:08.205Z,101413.56
2022-11-14T09:56:20.609Z,101410.41
2022-11-14T09:59:27.461Z,101416.50
2022-11-14T10:03:06.883Z,101409.81
2022-11-14T10:06:32.670Z,101405.25
2022-11-14T10:09:52.548Z,101384.22
2022-11-14T10:13:07.182Z,101384.22
2022-11-14T10:16:18.803Z,101391.66
2022-11-14T10:19:37.498Z,101369.97
2022-11-14T10:23:14.391Z,101386.34
2022-11-14T10:26:33.391Z,101379.56
2022-11-14T10:30:10.862Z,101360.91
2022-11-14T10:33:35.614Z,101380.06
2022-11-14T10:37:14.349Z,101369.72
2022-11-14T10:40:25.171Z,101370.38
2022-11-14T10:43:45.160Z,101364.22
2022-11-14T10:46:56.753Z,101357.41
2022-11-14T10:50:25.274Z,101351.66
2022-11-14T10:53:34.195Z,101357.19
2022-11-14T10:56:47.977Z,101355.06
2022-11-14T10:59:55.752Z,101348.13
2022-11-14T11:03:01.944Z,101344.09
2022-11-14T11:06:25.213Z,101339.72
2022-11-14T11:09:50.049Z,101338.41
2022-11-14T11:12:56.590Z,101322.00
2022-11-14T11:16:05.286Z,101329.31
2022-11-14T11:19:18.023Z,101320.59
2022-11-14T11:22:26.268Z,101320.44
2022-11-14T11:25:34.387Z,101308.75
2022-11-14T11:28:43.665Z,101311.81
2022-11-14T11:31:59.666Z,101310.03
2022-11-14T11:35:12.455Z,101313.00
2022-11-14T11:38:20.340Z,101315.09
2022-11-14T11:45:01.900Z,101312.66
2022-11-14T11:48:19.926Z,101316.97
2022-11-14T11:51:27.228Z,101318.59
2022-11-14T11:54:55.626Z,101324.75
2022-11-14T11:58:27.783Z,101325.72
2022-11-14T12:01:33.851Z,101318.59
2022-11-14T12:04:40.134Z,101316.19
2022-11-14T12:07:58.879Z,101319.44
2022-11-14T12:11:10.265Z,101307.91
2022-11-14T12:14:41.195Z,101303.69
2022-11-14T12:17:56.022Z,101296.22
2022-11-14T12:21:12.791Z,101298.19
2022-11-14T12:24:41.474Z,101300.63
2022-11-14T12:28:07.877Z,101286.50
2022-11-14T12:31:17.274Z,101282.63
2022-11-14T12:34:32.143Z,101286.69
2022-11-14T12:37:44.820Z,101282.47
2022-11-14T12:41:00.650Z,101286.34
2022-11-14T12:44:28.285Z,101286.38
2022-11-14T12:47:34.860Z,101278.94
2022-11-14T12:50:43.267Z,101276.03
2022-11-14T12:53:49.701Z,101265.63
2022-11-14T12:57:00.973Z,101265.97
2022-11-14T13:00:09.247Z,101262.22
2022-11-14T13:03:41.708Z,101273.59
2022-11-14T13:07:15.848Z,101271.47
2022-11-14T13:10:32.383Z,101274.72
2022-11-14T13:14:20.740Z,101258.16
2022-11-14T13:17:45.999Z,101271.75
2022-11-14T13:21:21.756Z,101251.97
2022-11-14T13:24:59.741Z,101271.13
2022-11-14T13:28:37.437Z,101255.09
2022-11-14T13:31:49.660Z,101249.56
2022-11-14T13:35:03.499Z,101265.78
2022-11-14T13:38:48.827Z,101263.19
2022-11-14T13:42:07.943Z,101267.06
2022-11-14T13:45:42.877Z,101263.50
2022-11-14T13:49:37.291Z,101258.28
2022-11-14T13:52:47.044Z,101265.09
2022-11-14T13:55:59.677Z,101246.75
2022-11-14T13:59:46.718Z,101257.81
2022-11-14T14:03:07.800Z,101265.09
2022-11-14T14:06:51.059Z,101265.44
2022-11-14T14:10:26.841Z,101260.91
2022-11-14T14:13:55.657Z,101258.78
2022-11-14T14:17:19.023Z,101247.44
2022-11-14T14:20:36.197Z,101258.28
2022-11-14T14:23:58.177Z,101256.53
2022-11-14T14:27:41.048Z,101260.22
2022-11-14T14:31:25.353Z,101254.38
2022-11-14T14:34:32.269Z,101238.47
2022-11-14T14:37:38.375Z,101250.25
2022-11-14T14:40:44.746Z,101247.03
2022-11-14T14:43:55.360Z,101250.28
2022-11-14T14:47:31.210Z,101230.47
2022-11-14T14:50:42.158Z,101253.84
2022-11-14T14:53:54.236Z,101242.69
2022-11-14T14:57:00.651Z,101246.88
2022-11-14T15:00:26.455Z,101238.41
2022-11-14T15:03:38.081Z,101245.72
2022-11-14T15:06:47.181Z,101239.41
2022-11-14T15:10:02.236Z,101242.78
2022-11-14T15:13:15.056Z,101234.50
2022-11-14T15:16:22.121Z,101240.84
2022-11-14T15:19:40.740Z,101244.41
2022-11-14T15:23:26.925Z,101215.22
2022-11-14T15:26:55.246Z,101254.06
2022-11-14T15:30:04.934Z,101250.97
2022-11-14T15:33:34.462Z,101230.22
2022-11-14T15:37:07.735Z,101249.06
2022-11-14T15:40:23.098Z,101255.72
2022-11-14T15:43:45.560Z,101239.66
2022-11-14T15:46:52.671Z,101249.88
2022-11-14T15:50:06.080Z,101244.50
2022-11-14T15:53:23.334Z,101260.38
2022-11-14T15:56:30.634Z,101253.88
2022-11-14T15:59:37.675Z,101256.03
2022-11-14T16:02:59.574Z,101251.31
2022-11-14T16:06:05.750Z,101247.94
2022-11-14T16:09:18.370Z,101244.97
2022-11-14T16:12:24.620Z,101240.59
2022-11-14T16:15:30.896Z,101223.19
2022-11-14T16:18:37.102Z,101244.97
2022-11-14T16:21:43.605Z,101228.41
2022-11-14T16:24:49.635Z,101234.38
2022-11-14T16:27:55.942Z,101227.84
2022-11-14T16:31:02.171Z,101237.63
2022-11-14T16:34:15.691Z,101226.28
2022-11-14T16:37:25.597Z,101231.97
2022-11-14T16:40:40.310Z,101232.59
2022-11-14T16:43:46.647Z,101233.16
2022-11-14T16:46:52.609Z,101239.13
2022-11-14T16:49:59.229Z,101235.19
2022-11-14T16:53:15.201Z,101236.69
2022-11-14T16:56:21.565Z,101231.63
2022-11-14T16:59:27.855Z,101227.16
2022-11-14T17:02:34.093Z,101234.66
2022-11-14T17:05:50.614Z,101244.44
2022-11-14T17:08:59.805Z,101234.75
2022-11-14T17:12:06.849Z,101234.53
2022-11-14T17:15:13.086Z,101217.66
2022-11-14T17:18:19.449Z,101232.72
2022-11-14T17:21:26.657Z,101238.22
2022-11-14T17:24:34.920Z,101232.09
2022-11-14T17:27:40.924Z,101239.25
2022-11-14T17:30:46.807Z,101220.25
2022-11-14T17:33:55.351Z,101249.63
2022-11-14T17:37:02.097Z,101242.19
2022-11-14T17:40:15.517Z,101236.16
2022-11-14T17:43:42.748Z,101240.44
2022-11-14T17:46:52.239Z,101231.97
2022-11-14T17:49:58.387Z,101233.41
2022-11-14T17:53:04.621Z,101228.72
2022-11-14T17:56:19.727Z,101214.91
2022-11-14T17:59:26.033Z,101212.16
2022-11-14T18:02:32.257Z,101223.13
2022-11-14T18:05:38.862Z,101219.91
2022-11-14T18:08:44.903Z,101197.56
2022-11-14T18:11:51.058Z,101221.09
2022-11-14T18:14:56.982Z,101223.19
2022-11-14T18:18:03.184Z,101218.16
2022-11-14T18:21:20.154Z,101217.06
2022-11-14T18:24:26.635Z,101210.75
2022-11-14T18:27:32.519Z,101207.38
2022-11-14T18:30:42.292Z,101217.53
2022-11-14T18:33:48.832Z,101216.19
2022-11-14T18:36:55.137Z,101218.47
2022-11-14T18:40:01.039Z,101204.84
2022-11-14T18:43:07.327Z,101223.03
2022-11-14T18:46:21.924Z,101216.53
2022-11-14T18:49:28.619Z,101209.88
2022-11-14T18:52:34.757Z,101221.09
2022-11-14T18:55:43.165Z,101219.47
2022-11-14T18:58:53.422Z,101221.72
2022-11-14T19:02:02.117Z,101178.84
2022-11-14T19:05:08.872Z,101208.09
2022-11-14T19:08:21.316Z,101214.78
2022-11-14T19:11:46.274Z,101216.19
2022-11-14T19:14:54.122Z,101200.28
2022-11-14T19:18:00.627Z,101212.75
2022-11-14T19:21:06.725Z,101195.34
2022-11-14T19:24:13.067Z,101210.63
2022-11-14T19:27:22.164Z,101220.19
2022-11-14T19:30:30.862Z,101189.34
2022-11-14T19:33:41.455Z,101228.00
2022-11-14T19:37:03.232Z,101223.81
2022-11-14T19:40:10.433Z,101216.16
2022-11-14T19:43:18.015Z,101213.50
2022-11-14T19:46:31.607Z,101220.19
2022-11-14T19:49:37.709Z,101198.81
2022-11-14T19:52:43.908Z,101211.94
2022-11-14T19:55:49.911Z,101216.34
2022-11-14T19:58:56.927Z,101199.06
2022-11-14T20:02:05.832Z,101211.91
2022-11-14T20:05:12.155Z,101202.63
2022-11-14T20:08:18.461Z,101206.88
2022-11-14T20:11:27.578Z,101215.81
2022-11-14T20:14:33.856Z,101214.97
2022-11-14T20:17:40.331Z,101220.19
2022-11-14T20:20:46.401Z,101211.91
2022-11-14T20:23:53.533Z,101200.50
2022-11-14T20:26:59.880Z,101207.53
2022-11-14T20:30:06.927Z,101194.63
2022-11-14T20:33:13.307Z,101216.38
2022-11-14T20:36:22.349Z,101206.88
2022-11-14T20:39:28.901Z,101204.63
2022-11-14T20:42:35.063Z,101190.31
2022-11-14T20:45:41.325Z,101190.56
2022-11-14T20:48:48.316Z,101192.19
2022-11-14T20:51:54.422Z,101188.88
2022-11-14T20:55:00.849Z,101190.19
2022-11-14T20:58:07.133Z,101179.50
2022-11-14T21:01:14.281Z,101167.69
2022-11-14T21:04:20.593Z,101181.44
2022-11-14T21:07:27.006Z,101170.13
2022-11-14T21:10:47.266Z,101161.97
2022-11-14T21:13:59.302Z,101179.84
2022-11-14T21:17:05.595Z,101175.16
2022-11-14T21:20:11.762Z,101176.75
2022-11-14T21:23:17.580Z,101170.59
2022-11-14T21:26:27.905Z,101166.06
2022-11-14T21:29:34.139Z,101169.34
2022-11-14T21:32:42.509Z,101150.84
2022-11-14T21:35:48.484Z,101158.81
2022-11-14T21:38:55.142Z,101155.25
2022-11-14T21:42:01.032Z,101154.94
2022-11-14T21:45:07.734Z,101153.59
2022-11-14T21:48:13.722Z,101145.75
2022-11-14T21:51:22.926Z,101158.75
2022-11-14T21:54:28.854Z,101156.84
2022-11-14T21:57:35.000Z,101152.94
2022-11-14T22:00:42.238Z,101150.69
2022-11-14T22:04:07.117Z,101146.31
2022-11-14T22:07:13.188Z,101141.09
2022-11-14T22:10:19.490Z,101134.78
2022-11-14T22:13:25.825Z,101110.75
2022-11-14T22:16:33.095Z,101139.31
2022-11-14T22:19:39.378Z,101130.91
2022-11-14T22:22:45.365Z,101106.72
2022-11-14T22:25:59.582Z,101129.75
2022-11-14T22:29:06.824Z,101129.44
2022-11-14T22:32:13.254Z,101108.88
2022-11-14T22:35:19.588Z,101104.63
2022-11-14T22:38:29.110Z,101104.34
2022-11-14T22:41:35.327Z,101107.75
2022-11-14T22:44:41.574Z,101110.34
2022-11-14T22:47:48.052Z,101115.50
2022-11-14T22:51:24.960Z,101105.44
2022-11-14T22:54:31.361Z,101097.19
2022-11-14T22:57:37.506Z,101100.41
2022-11-14T23:00:43.656Z,101094.44
2022-11-14T23:03:54.926Z,101101.06
2022-11-14T23:07:01.879Z,101094.44
2022-11-14T23:10:11.033Z,101099.59
2022-11-14T23:13:17.301Z,101102.69
2022-11-14T23:16:30.057Z,101098.28
2022-11-14T23:19:36.292Z,101109.13
2022-11-14T23:22:42.571Z,101109.13
2022-11-14T23:25:48.976Z,101106.03
2022-11-14T23:28:55.651Z,101091.59
2022-11-14T23:32:02.115Z,101107.38
2022-11-14T23:35:08.311Z,101107.53
2022-11-14T23:38:14.449Z,101109.00
2022-11-14T23:41:27.608Z,101093.63
2022-11-14T23:44:34.022Z,101106.72
2022-11-14T23:47:40.399Z,101101.84
2022-11-14T23:50:50.969Z,101096.94
2022-11-14T23:53:56.876Z,101094.88
2022-11-14T23:57:04.810Z,101101.88
